North Platte, NE

10:23 PM CST on December 22, 2014 (GMT -0600)
Searle | Change Station
CLOSE
Current Station
Airport
Location: Ogallala,
Elevation: 3278 ft
Nearby Weather Stations
Active Advisory: Special Statement

Elev 3278 ft 41.12 °N, 101.77 °W | Updated 8 minutes ago

Overcast
Overcast
32 °F
Feels Like 19 °F
N
24
Wind Variable Wind from NNW
Gusts 37 mph

Today
High -- | Low -- °F
--% Chance of Precip.
Yesterday
High -- | Low -- °F
Precip. -- in
8:05 AM 5:18 PM
New Moon, 2% visible
Pressure 29.67 in
Visibility 10.0 miles
Clouds Scattered Clouds 500 ft
Mostly Cloudy 2500 ft
Overcast 6000 ft
Windchill 19 °F
Dew Point 27 °F
Humidity 83%
Rainfall 0.00 in
Snow Depth Not available.
UV 0 out of 12
Pollen .10 out of 12
Air Quality Not available.
Flu Activity Not available.
METAR KOGA 230415Z AUTO 34021G32KT 10SM -SN SCT005 BKN025 OVC060 00/M03 A2967 RMK AO2 T00001026

More Conditions Fewer Conditions

Pressure 29.67 in
Visibility 10.0 miles
Clouds Scattered Clouds 500 ft
Mostly Cloudy 2500 ft
Overcast 6000 ft
Windchill 19 °F
Dew Point 27 °F
Humidity 83%
Rainfall 0.00 in
Snow Depth Not available.
UV 0 out of 12
Pollen .10 out of 12
Air Quality Not available.
Flu Activity Not available.
METAR KOGA 230415Z AUTO 34021G32KT 10SM -SN SCT005 BKN025 OVC060 00/M03 A2967 RMK AO2 T00001026

More Conditions Fewer Conditions

10-Day Weather Forecast

Almanac

Astronomy

Dec. 22, 2014 Rise Set
Actual Time
Civil Twilight
Nautical Twilight
Astronomical Twilight
Moon
Length of Visible Light
Length of Day
Tomorrow will be .
, % of the Moon is Illuminated

Today's Extremes

State Highs State Lows

Community

WunderPhotos

Upload Photos

1,779,776 photos uploaded!

WunderBlogs® & News

Nearby

Air Quality

  Air Quality AQ Index Pollutant
Not available.

Snow Depth

Station Depth Elevation

Earthquake Activity

City Distance Mag. Time & Date
Minimum magnitude displayed is 2.5.

Coastal Water Temperatures

Place Temperature

Nearby Weather Stations